Thompson Falls, MT

2:43 PM MDT on September 21, 2014 (GMT -0600)
RAWS THOMPSON FALLS A/P MT US | Change Station
CLOSE
Current Station
Personal Weather Station
Location: Thompson Falls, MT
Elevation: 2425 ft
Nearby Weather Stations

Elev 2425 ft 47.58 °N, 115.28 °W | Updated 41 minutes ago

Clear
Clear
84 °F
Feels Like 81 °F
N
13
Wind Variable Wind from West
Gusts 19.0 mph

Today
High -- | Low -- °F
--% Chance of Precip.
Yesterday
High -- | Low -- °F
Precip. -- in
7:26 AM 7:40 PM
Waning Crescent, 5% visible
Pressure 29.95 in
Visibility 10.0 miles
Clouds Clear
Heat Index 81 °F
Dew Point 41 °F
Humidity 22%
Rainfall 0.00 in
Snow Depth 0 in , 0 in , 1 in
UV 6 out of 12
Pollen 2.20 out of 12
Air Quality Not available.
Flu Activity Not available.
METAR KCOE 212035Z AUTO 07004KT 10SM CLR 29/08 A2995 RMK AO1

More Conditions Fewer Conditions

Pressure 29.95 in
Visibility 10.0 miles
Clouds Clear
Heat Index 81 °F
Dew Point 41 °F
Humidity 22%
Rainfall 0.00 in
Snow Depth 0 in , 0 in , 1 in
UV 6 out of 12
Pollen 2.20 out of 12
Air Quality Not available.
Flu Activity Not available.
METAR KCOE 212035Z AUTO 07004KT 10SM CLR 29/08 A2995 RMK AO1

More Conditions Fewer Conditions

10-Day Weather Forecast

Almanac

Astronomy

Sep. 21, 2014 Rise Set
Actual Time 7:26 AM MDT 7:40 PM MDT
Civil Twilight 6:56 AM MDT 8:11 PM MDT
Nautical Twilight 6:19 AM MDT 8:47 PM MDT
Astronomical Twilight 5:42 AM MDT 9:25 PM MDT
Moon 4:56 AM MDT 6:25 PM MDT
Length of Visible Light 13h 15m
Length of Day
12h 14m
Tomorrow will be 3m 26s shorter.
Waning Crescent, 5% of the Moon is Illuminated
Today
Waning Crescent
Sep 24
New
Oct 1
First Quarter
Oct 8
Full
Oct 15
Last Quarter

Today's Extremes

State Highs State Lows

Community

WunderPhotos

Upload Photos

1,755,250 photos uploaded!

Nearby

Snow Depth

Station Depth Elevation
Cole Creek 0 in 7850 ft
Mule Creek 0 in 8300 ft
Black Pine 0 in 7210 ft
Wood Creek 1 in 5960 ft
Short Creek 0 in 7000 ft

Earthquake Activity

City Distance Mag. Time & Date
No recent earthquake activity has been reported nearby.
Minimum magnitude displayed is 2.5.

Coastal Water Temperatures

Place Temperature
No Stations Reporting

Nearby Weather Stations